Time;durP1;ratioP1;P1;durP2;ratioP2;P2;SDS_P1;SDS_P2;PMS_P1;PMS_P2;Temp;Humidity;BMP_temperature;BMP_pressure;BME280_temperature;BME280_humidity;BME280_pressure;Samples;Min_cycle;Max_cycle;Signal;HPM_P1;HPM_P2
2023/10/07 00:02:13;;;;;;;19.57;6.40;;;;;;;-145.18;100.00;46660.41;5029356;28;20038;-60
2023/10/07 00:04:44;;;;;;;12.47;5.80;;;;;;;-145.18;100.00;46660.41;5033581;28;20018;-60
2023/10/07 00:07:10;;;;;;;19.80;5.80;;;;;;;-145.18;100.00;46660.41;5029335;28;20025;-59
2023/10/07 00:09:41;;;;;;;9.90;5.33;;;;;;;-145.18;100.00;46660.41;5028959;28;20025;-60
2023/10/07 00:12:14;;;;;;;12.57;5.50;;;;;;;-145.18;100.00;46660.41;5033022;28;20474;-60
2023/10/07 00:14:40;;;;;;;14.10;6.17;;;;;;;-145.18;100.00;46660.41;5030167;28;20029;-60
2023/10/07 00:17:13;;;;;;;17.23;5.63;;;;;;;-145.18;100.00;46660.41;5032855;28;20034;-60
2023/10/07 00:19:39;;;;;;;12.83;5.40;;;;;;;-145.18;100.00;46660.41;5032260;28;20029;-60
2023/10/07 00:22:08;;;;;;;18.03;6.23;;;;;;;-145.18;100.00;46660.41;5032399;28;20474;-60
2023/10/07 00:24:40;;;;;;;17.17;7.03;;;;;;;-145.18;100.00;46660.41;5032280;28;20401;-60
2023/10/07 00:27:13;;;;;;;13.73;6.57;;;;;;;-145.18;100.00;46660.41;5032190;28;20060;-60
2023/10/07 00:29:53;;;;;;;12.60;6.33;;;;;;;-145.18;100.00;46660.41;5031215;28;20087;-60
2023/10/07 00:32:18;;;;;;;18.17;7.37;;;;;;;-145.18;100.00;46633.06;5031357;28;20036;-65
2023/10/07 00:34:44;;;;;;;18.07;7.00;;;;;;;-145.18;100.00;46660.41;5030001;28;20038;-65
2023/10/07 00:37:10;;;;;;;12.43;7.33;;;;;;;-145.18;100.00;46660.41;5031853;28;20045;-65
2023/10/07 00:39:38;;;;;;;12.90;6.10;;;;;;;-145.18;100.00;46660.41;5030256;28;20025;-65
2023/10/07 00:42:07;;;;;;;17.63;7.33;;;;;;;-145.18;100.00;46660.41;5032031;28;20038;-65
2023/10/07 00:44:33;;;;;;;16.47;7.50;;;;;;;-145.18;100.00;46660.41;5030335;28;20033;-65
2023/10/07 00:49:28;;;;;;;18.40;7.27;;;;;;;-145.18;100.00;46660.41;5031486;28;20017;-65
2023/10/07 00:51:56;;;;;;;15.83;7.60;;;;;;;-145.18;100.00;46660.41;5031463;28;20029;-65
2023/10/07 00:54:44;;;;;;;27.37;8.40;;;;;;;-145.18;100.00;46660.41;5029300;28;20041;-65
2023/10/07 00:57:14;;;;;;;21.33;7.80;;;;;;;-145.18;100.00;46660.41;5028957;28;20045;-65
2023/10/07 00:59:41;;;;;;;21.63;8.70;;;;;;;-145.18;100.00;46660.41;5031984;28;20091;-65
2023/10/07 01:02:14;;;;;;;17.07;8.40;;;;;;;-145.18;100.00;46660.41;5029421;28;20540;-65
2023/10/07 01:04:40;;;;;;;17.10;8.47;;;;;;;-145.18;100.00;46660.41;5013468;28;20037;-65
2023/10/07 01:07:07;;;;;;;21.03;8.63;;;;;;;-145.18;100.00;46660.41;5030384;28;20124;-65
2023/10/07 01:09:32;;;;;;;21.27;8.93;;;;;;;-145.18;100.00;46660.41;5030233;28;20540;-65
2023/10/07 01:11:58;;;;;;;24.73;8.33;;;;;;;-145.18;100.00;46660.41;5031337;28;20045;-65
2023/10/07 01:14:28;;;;;;;25.03;9.23;;;;;;;-145.18;100.00;46660.41;5030349;28;20393;-65
2023/10/07 01:16:53;;;;;;;23.57;7.93;;;;;;;-145.18;100.00;46660.41;5029634;28;20033;-65
2023/10/07 01:19:27;;;;;;;22.00;9.10;;;;;;;-145.18;100.00;46660.41;5030545;28;20447;-65
2023/10/07 01:22:09;;;;;;;16.67;7.73;;;;;;;-145.18;100.00;46660.41;5029207;28;20468;-65
2023/10/07 01:32:34;;;;;;;20.80;9.10;;;;;;;-145.18;100.00;46660.41;5029558;28;20069;-65
2023/10/07 01:35:06;;;;;;;27.30;9.23;;;;;;;-145.18;100.00;46660.41;5029121;28;20057;-65
2023/10/07 01:37:59;;;;;;;26.50;9.50;;;;;;;-145.18;100.00;46660.41;5028142;28;20034;-65
2023/10/07 01:40:27;;;;;;;22.77;9.07;;;;;;;-145.18;100.00;46660.41;5028563;28;20041;-62
2023/10/07 01:42:53;;;;;;;28.17;9.20;;;;;;;-145.18;100.00;46656.50;5030382;28;20033;-65
2023/10/07 01:45:22;;;;;;;22.47;9.33;;;;;;;-145.18;100.00;46660.41;5028692;28;20034;-65
2023/10/07 01:47:55;;;;;;;25.30;8.97;;;;;;;-145.18;100.00;46660.41;5027342;28;20046;-65
2023/10/07 01:50:24;;;;;;;17.90;8.87;;;;;;;-145.18;100.00;46660.41;5028679;28;20033;-65
2023/10/07 01:52:53;;;;;;;22.10;10.00;;;;;;;-145.18;100.00;46660.41;5029376;28;20036;-65
2023/10/07 01:55:19;;;;;;;23.23;9.67;;;;;;;-145.18;100.00;46660.41;5028895;28;20030;-64
2023/10/07 01:57:48;;;;;;;22.43;10.30;;;;;;;-145.18;100.00;46660.41;5028964;28;20064;-65
2023/10/07 02:00:29;;;;;;;21.97;10.70;;;;;;;-145.18;100.00;46660.41;5029594;28;20037;-66
2023/10/07 02:03:02;;;;;;;17.02;9.35;;;;;;;-145.18;100.00;46660.41;5028582;28;20137;-65
2023/10/07 02:05:34;;;;;;;18.30;9.53;;;;;;;-145.18;100.00;46654.53;5028258;28;20037;-65
2023/10/07 02:08:01;;;;;;;23.63;10.60;;;;;;;-145.18;100.00;46660.41;5027850;28;20037;-65
2023/10/07 02:10:27;;;;;;;21.77;10.27;;;;;;;-145.18;100.00;46660.41;5024444;28;20481;-65
2023/10/07 02:12:55;;;;;;;20.40;9.67;;;;;;;-145.18;100.00;46656.50;5028593;28;20067;-65
2023/10/07 02:15:20;;;;;;;25.77;10.77;;;;;;;-145.18;100.00;46660.41;5027748;28;20106;-65
2023/10/07 02:17:47;;;;;;;20.27;9.73;;;;;;;-145.18;100.00;46660.41;5028757;28;20104;-65
2023/10/07 02:20:27;;;;;;;28.83;10.23;;;;;;;-145.18;100.00;46656.50;5026610;28;20554;-65
2023/10/07 02:22:53;;;;;;;24.90;9.40;;;;;;;-145.18;100.00;46658.44;5028136;28;20180;-65
2023/10/07 02:25:27;;;;;;;25.80;10.17;;;;;;;-145.18;100.00;46656.50;5029862;28;20037;-65
2023/10/07 02:27:54;;;;;;;23.63;9.87;;;;;;;-145.18;100.00;46660.41;5028794;28;20524;-65
2023/10/07 02:30:19;;;;;;;25.83;10.50;;;;;;;-145.18;100.00;46660.41;5028254;28;20055;-65
2023/10/07 02:32:49;;;;;;;25.07;10.33;;;;;;;-145.18;100.00;46660.41;5029561;28;20033;-65
2023/10/07 02:35:19;;;;;;;22.80;10.57;;;;;;;-145.18;100.00;46658.44;5058158;28;21481;-65
2023/10/07 02:37:49;;;;;;;26.60;10.43;;;;;;;-145.18;100.00;46656.50;5024542;28;20478;-65
2023/10/07 02:40:35;;;;;;;30.23;10.87;;;;;;;-145.18;100.00;46660.41;5028897;28;20056;-65
2023/10/07 02:43:07;;;;;;;29.20;11.50;;;;;;;-145.18;100.00;46658.44;5028445;28;20034;-65
2023/10/07 02:45:39;;;;;;;26.17;11.23;;;;;;;-145.18;100.00;46660.41;5026749;28;20124;-65
2023/10/07 02:48:10;;;;;;;22.27;11.37;;;;;;;-145.18;100.00;46660.41;5026649;28;20037;-65
2023/10/07 02:50:39;;;;;;;29.03;12.00;;;;;;;-145.18;100.00;46658.44;5028916;28;20060;-61
2023/10/07 02:53:11;;;;;;;27.47;11.57;;;;;;;-145.18;100.00;46660.41;5028282;28;20037;-60
2023/10/07 02:55:46;;;;;;;29.63;11.93;;;;;;;-145.18;100.00;46660.41;5028472;28;20034;-60
2023/10/07 02:58:13;;;;;;;35.13;12.40;;;;;;;-145.18;100.00;46658.44;5028182;28;20535;-60
2023/10/07 03:00:39;;;;;;;25.87;12.50;;;;;;;-145.18;100.00;46658.44;5029713;28;20517;-60
2023/10/07 03:05:44;;;;;;;27.27;11.38;;;;;;;-145.18;100.00;46656.50;5027952;28;20057;-60
2023/10/07 03:08:22;;;;;;;29.27;12.33;;;;;;;-145.18;100.00;46656.50;5029078;28;20033;-60
2023/10/07 03:11:24;;;;;;;27.27;12.70;;;;;;;-145.18;100.00;46654.53;5027995;28;20033;-60
2023/10/07 03:13:45;;;;;;;25.30;12.80;;;;;;;-145.18;100.00;46658.44;5024855;28;20064;-60
2023/10/07 03:24:07;;;;;;;29.73;13.53;;;;;;;-145.18;100.00;46652.59;5025050;28;20026;-60
2023/10/07 03:26:32;;;;;;;30.47;13.13;;;;;;;-145.18;100.00;46656.50;4994982;28;20914;-60
2023/10/07 03:29:03;;;;;;;27.13;13.10;;;;;;;-145.18;100.00;46652.59;5022129;28;20029;-60
2023/10/07 03:31:47;;;;;;;29.03;12.80;;;;;;;-145.18;100.00;46652.59;5025693;28;20033;-60
2023/10/07 03:34:13;;;;;;;30.97;13.30;;;;;;;-145.18;100.00;46650.63;5025182;28;20037;-60
2023/10/07 03:36:44;;;;;;;31.67;12.87;;;;;;;-145.18;100.00;46650.63;5029058;28;20103;-60
2023/10/07 03:39:24;;;;;;;26.93;12.10;;;;;;;-145.18;100.00;46652.59;5029290;28;20032;-60
2023/10/07 03:41:59;;;;;;;26.27;12.10;;;;;;;-145.18;100.00;46654.53;5026940;28;20029;-60
2023/10/07 03:44:25;;;;;;;31.92;12.82;;;;;;;-145.18;100.00;46658.44;5032670;28;20057;-60
2023/10/07 03:46:56;;;;;;;26.67;12.67;;;;;;;-145.18;100.00;46656.50;5034589;28;20067;-60
2023/10/07 03:49:23;;;;;;;33.23;11.93;;;;;;;-145.18;100.00;46656.50;5032993;28;20131;-60
2023/10/07 03:51:59;;;;;;;25.47;11.40;;;;;;;-145.18;100.00;46654.53;5032442;28;20140;-60
2023/10/07 03:54:29;;;;;;;30.73;12.53;;;;;;;-145.18;100.00;46654.53;5031798;28;20040;-60
2023/10/07 03:57:01;;;;;;;28.40;12.47;;;;;;;-145.18;100.00;46652.59;5032845;28;20040;-60
2023/10/07 03:59:31;;;;;;;34.60;12.53;;;;;;;-145.18;100.00;46654.53;5031256;28;20059;-60
2023/10/07 04:01:57;;;;;;;26.90;12.00;;;;;;;-145.18;100.00;46656.50;5032307;28;20044;-61
2023/10/07 04:04:23;;;;;;;28.23;13.97;;;;;;;-145.18;100.00;46656.50;5032963;28;20393;-60
2023/10/07 04:06:49;;;;;;;28.33;12.80;;;;;;;-145.18;100.00;46654.53;5031346;28;20037;-60
2023/10/07 04:09:14;;;;;;;26.77;12.87;;;;;;;-145.18;100.00;46656.50;5033410;28;20110;-60
2023/10/07 04:11:48;;;;;;;32.50;14.03;;;;;;;-145.18;100.00;46658.44;5031421;28;20463;-60
2023/10/07 04:14:22;;;;;;;40.43;14.23;;;;;;;-145.18;100.00;46660.41;5030993;28;20095;-60
2023/10/07 04:16:50;;;;;;;28.93;14.13;;;;;;;-145.18;100.00;46656.50;5030886;28;20060;-60
2023/10/07 04:21:41;;;;;;;34.57;14.33;;;;;;;-145.18;100.00;46656.50;5032257;28;20128;-60
2023/10/07 04:24:11;;;;;;;31.03;14.40;;;;;;;-145.18;100.00;46654.53;5030395;28;20069;-60
2023/10/07 04:26:40;;;;;;;23.73;13.50;;;;;;;-145.18;100.00;46656.50;5028760;28;20091;-60
2023/10/07 04:29:08;;;;;;;26.63;14.17;;;;;;;-145.18;100.00;46658.44;5029236;28;20045;-60
2023/10/07 04:31:37;;;;;;;33.77;14.80;;;;;;;-145.18;100.00;46654.53;5032361;28;20025;-60
2023/10/07 04:34:12;;;;;;;30.63;14.70;;;;;;;-145.18;100.00;46656.50;5031207;28;20059;-60
2023/10/07 04:37:08;;;;;;;33.17;15.23;;;;;;;-145.18;100.00;46650.63;5031178;28;20123;-60
2023/10/07 04:39:28;;;;;;;28.77;15.23;;;;;;;-145.18;100.00;46660.41;5030132;28;20037;-60
2023/10/07 04:41:58;;;;;;;36.87;15.30;;;;;;;-145.18;100.00;46656.50;5030649;28;20037;-60
2023/10/07 04:45:16;;;;;;;32.47;15.23;;;;;;;-145.18;100.00;46656.50;5030976;28;20029;-61
2023/10/07 04:52:32;;;;;;;26.20;14.13;;;;;;;-145.18;100.00;46654.53;5026202;28;20037;-60
2023/10/07 04:54:59;;;;;;;32.63;15.00;;;;;;;-145.18;100.00;46656.50;5031679;28;20269;-61
2023/10/07 05:03:08;;;;;;;29.80;14.50;;;;;;;-145.18;100.00;46658.44;5030389;28;20083;-60
2023/10/07 05:05:36;;;;;;;31.40;13.60;;;;;;;-145.18;100.00;46658.44;5029749;28;20033;-60
2023/10/07 05:08:11;;;;;;;32.80;15.00;;;;;;;-145.18;100.00;46660.41;5030969;28;20037;-61
2023/10/07 05:10:41;;;;;;;35.53;13.63;;;;;;;-145.18;100.00;46652.59;5028224;28;20417;-60
2023/10/07 05:13:08;;;;;;;29.23;14.33;;;;;;;-145.18;100.00;46656.50;5028937;28;20491;-60
2023/10/07 05:15:40;;;;;;;28.47;13.23;;;;;;;-145.18;100.00;46654.53;5029793;28;20037;-60
2023/10/07 05:18:06;;;;;;;30.10;14.33;;;;;;;-145.18;100.00;46658.44;5028172;28;20017;-60
2023/10/07 05:20:37;;;;;;;36.13;13.90;;;;;;;-145.18;100.00;46658.44;5030484;28;20029;-60
2023/10/07 05:23:04;;;;;;;31.53;13.87;;;;;;;-145.18;100.00;46658.44;5028276;28;20060;-60
2023/10/07 05:25:35;;;;;;;42.40;15.07;;;;;;;-145.18;100.00;46656.50;5031764;28;20484;-60
2023/10/07 05:28:10;;;;;;;33.93;13.30;;;;;;;-145.18;100.00;46658.44;5029107;28;20383;-60
2023/10/07 05:30:41;;;;;;;29.17;12.97;;;;;;;-145.18;100.00;46660.41;5028858;28;20017;-60
2023/10/07 05:33:08;;;;;;;29.87;13.63;;;;;;;-145.18;100.00;46658.44;5024170;28;20095;-61
2023/10/07 05:35:37;;;;;;;33.87;14.23;;;;;;;-145.18;100.00;46654.53;5031486;28;20175;-60
2023/10/07 05:38:09;;;;;;;35.43;14.40;;;;;;;-145.18;100.00;46660.41;5030168;28;20152;-61
2023/10/07 05:40:36;;;;;;;34.07;14.20;;;;;;;-145.18;100.00;46656.50;5026940;28;20041;-61
2023/10/07 05:43:02;;;;;;;34.13;15.17;;;;;;;-145.18;100.00;46656.50;5029459;28;20136;-61
2023/10/07 05:45:28;;;;;;;23.20;13.53;;;;;;;-145.18;100.00;46656.50;5029072;28;20108;-61
2023/10/07 05:47:54;;;;;;;30.87;12.73;;;;;;;-145.18;100.00;46652.59;5030609;28;20033;-60
2023/10/07 05:50:22;;;;;;;30.37;13.70;;;;;;;-145.18;100.00;46656.50;5028077;28;20033;-60
2023/10/07 05:52:48;;;;;;;35.13;14.50;;;;;;;-145.18;100.00;46660.41;5030089;28;20504;-60
2023/10/07 05:55:13;;;;;;;30.60;13.20;;;;;;;-145.18;100.00;46658.44;5024029;28;20038;-61
2023/10/07 05:57:39;;;;;;;28.30;13.73;;;;;;;-145.18;100.00;46656.50;5030442;28;20029;-60
2023/10/07 06:00:09;;;;;;;43.70;14.80;;;;;;;-145.18;100.00;46656.50;5030030;28;20036;-60
2023/10/07 06:02:37;;;;;;;36.03;15.50;;;;;;;-145.18;100.00;46658.44;5029755;28;21904;-60
2023/10/07 06:05:06;;;;;;;30.93;15.43;;;;;;;-145.18;100.00;46656.50;5024449;28;20041;-60
2023/10/07 06:07:32;;;;;;;35.20;14.67;;;;;;;-145.18;100.00;46658.44;5029572;28;20037;-61
2023/10/07 06:09:59;;;;;;;30.20;14.43;;;;;;;-145.18;100.00;46660.41;5030597;28;20099;-60
2023/10/07 06:12:24;;;;;;;33.13;14.10;;;;;;;-145.18;100.00;46660.41;5029421;28;20037;-60
2023/10/07 06:14:50;;;;;;;29.80;14.63;;;;;;;-145.18;100.00;46658.44;5029013;28;20029;-61
2023/10/07 06:17:15;;;;;;;33.87;14.50;;;;;;;-145.18;100.00;46660.41;5028544;28;20033;-61
2023/10/07 06:19:43;;;;;;;30.90;14.00;;;;;;;-145.18;100.00;46660.41;5027710;28;20043;-60
2023/10/07 06:22:12;;;;;;;30.47;13.80;;;;;;;-145.18;100.00;46660.41;5024852;28;20053;-60
2023/10/07 06:24:39;;;;;;;30.13;14.33;;;;;;;-145.18;100.00;46660.41;5029648;28;20042;-61
2023/10/07 06:27:11;;;;;;;28.60;11.90;;;;;;;-145.18;100.00;46660.41;5028768;28;20128;-61
2023/10/07 06:29:42;;;;;;;31.83;13.30;;;;;;;-145.18;100.00;46660.41;5027260;28;20044;-60
2023/10/07 06:32:23;;;;;;;31.43;12.63;;;;;;;-145.18;100.00;46660.41;5028313;28;20501;-61
2023/10/07 06:34:54;;;;;;;28.00;13.23;;;;;;;-145.18;100.00;46660.41;5028909;28;20478;-60
2023/10/07 06:37:29;;;;;;;27.40;12.40;;;;;;;-145.18;100.00;46660.41;5029400;28;20040;-61
2023/10/07 06:39:58;;;;;;;27.13;11.98;;;;;;;-145.18;100.00;46660.41;5027407;28;20057;-60
2023/10/07 06:42:24;;;;;;;25.70;11.60;;;;;;;-145.18;100.00;46660.41;5013630;28;20037;-60
2023/10/07 06:44:56;;;;;;;30.50;12.10;;;;;;;-145.18;100.00;46660.41;5026325;28;20629;-60
2023/10/07 06:47:23;;;;;;;27.87;11.47;;;;;;;-145.18;100.00;46660.41;5010668;28;20029;-60
2023/10/07 06:49:52;;;;;;;28.37;11.87;;;;;;;-145.18;100.00;46629.13;5029983;28;20040;-60
2023/10/07 06:52:17;;;;;;;30.97;12.50;;;;;;;-145.18;100.00;46660.41;5027899;28;20037;-60
2023/10/07 06:54:42;;;;;;;29.17;12.20;;;;;;;-145.18;100.00;46660.41;5029306;28;20037;-60
2023/10/07 06:57:10;;;;;;;24.00;11.20;;;;;;;-145.18;100.00;46660.41;5028826;28;20029;-61
2023/10/07 06:59:45;;;;;;;25.20;11.80;;;;;;;-145.18;100.00;46625.22;5028458;28;20026;-61
2023/10/07 07:02:17;;;;;;;26.08;11.52;;;;;;;-145.18;100.00;46660.41;5030869;28;20080;-61
2023/10/07 07:04:42;;;;;;;28.63;11.93;;;;;;;-145.18;100.00;46627.19;5029213;28;20091;-61
2023/10/07 07:07:11;;;;;;;34.53;12.70;;;;;;;-145.18;100.00;46660.41;5030501;28;20048;-61
2023/10/07 07:09:50;;;;;;;29.17;12.83;;;;;;;-145.18;100.00;46660.41;5027884;28;20108;-61
2023/10/07 07:12:18;;;;;;;25.77;11.87;;;;;;;-145.18;100.00;46629.13;5027769;28;20476;-61
2023/10/07 07:14:50;;;;;;;21.87;11.83;;;;;;;-145.18;100.00;46627.19;5027858;28;20460;-60
2023/10/07 07:17:29;;;;;;;28.93;12.87;;;;;;;-145.18;100.00;46660.41;5031958;28;20546;-61
2023/10/07 07:22:37;;;;;;;36.73;12.50;;;;;;;-145.18;100.00;46629.13;5030618;28;20143;-61
2023/10/07 07:25:05;;;;;;;25.90;11.23;;;;;;;-145.18;100.00;46631.09;5030241;28;20443;-61
2023/10/07 07:27:36;;;;;;;27.57;12.83;;;;;;;-145.18;100.00;46629.13;5030915;28;20036;-61
2023/10/07 07:30:03;;;;;;;25.43;12.47;;;;;;;-145.18;100.00;46629.13;5031431;28;20397;-61
2023/10/07 07:32:32;;;;;;;25.37;12.27;;;;;;;-145.18;100.00;46629.13;5032838;28;20112;-61
2023/10/07 07:35:03;;;;;;;27.37;12.27;;;;;;;-145.18;100.00;46633.06;5032295;28;20063;-61
2023/10/07 07:37:32;;;;;;;25.57;13.13;;;;;;;-145.18;100.00;46635.00;5029952;28;20026;-61
2023/10/07 07:40:43;;;;;;;24.90;11.93;;;;;;;-145.18;100.00;46633.06;5031145;28;20079;-60
2023/10/07 07:42:55;;;;;;;35.50;14.00;;;;;;;-145.18;100.00;46633.06;5029871;28;20042;-61
2023/10/07 07:45:26;;;;;;;22.50;11.70;;;;;;;-145.18;100.00;46633.06;5027980;28;20112;-61
2023/10/07 07:47:52;;;;;;;25.13;11.77;;;;;;;-145.18;100.00;46635.00;5033000;28;20374;-60
2023/10/07 07:50:18;;;;;;;23.13;12.53;;;;;;;-145.18;100.00;46633.06;5032068;28;20041;-60
2023/10/07 07:52:44;;;;;;;23.43;11.53;;;;;;;-145.18;100.00;46635.00;5031341;28;20056;-61
2023/10/07 07:55:12;;;;;;;24.57;12.87;;;;;;;-145.18;100.00;46635.00;5028995;28;20413;-61
2023/10/07 07:57:38;;;;;;;25.30;11.43;;;;;;;-145.18;100.00;46635.00;5031302;28;20078;-61
2023/10/07 08:00:09;;;;;;;19.90;11.27;;;;;;;-145.18;100.00;46635.00;5031734;28;20136;-61
2023/10/07 08:02:35;;;;;;;24.23;11.47;;;;;;;-145.18;100.00;46635.00;5031467;28;20389;-61
2023/10/07 08:05:04;;;;;;;27.77;12.23;;;;;;;-145.18;100.00;46633.06;5028520;28;20040;-61
2023/10/07 08:07:32;;;;;;;21.70;11.33;;;;;;;-145.18;100.00;46640.88;5030157;28;20042;-61
2023/10/07 08:09:58;;;;;;;23.30;12.53;;;;;;;-145.18;100.00;46636.94;5032150;28;20064;-61
2023/10/07 08:12:28;;;;;;;24.73;12.43;;;;;;;-145.18;100.00;46640.88;5029448;28;20111;-61
2023/10/07 08:15:38;;;;;;;19.17;12.07;;;;;;;-145.18;100.00;46636.94;5029461;28;20510;-61
2023/10/07 08:17:51;;;;;;;23.10;12.67;;;;;;;-145.18;100.00;46642.81;5028933;28;20561;-60
2023/10/07 08:20:33;;;;;;;25.57;13.13;;;;;;;-145.18;100.00;46644.78;5030741;28;20119;-61
2023/10/07 08:23:07;;;;;;;25.17;12.37;;;;;;;-145.18;100.00;46644.78;5029880;28;20168;-61
2023/10/07 08:25:45;;;;;;;24.47;12.83;;;;;;;-145.18;100.00;46644.78;5027488;28;20041;-61
2023/10/07 08:28:25;;;;;;;24.83;13.47;;;;;;;-145.18;100.00;46646.72;5028957;28;20033;-61
2023/10/07 08:30:53;;;;;;;18.93;13.40;;;;;;;-145.18;100.00;46644.78;5030124;28;20025;-61
2023/10/07 08:33:23;;;;;;;23.70;12.10;;;;;;;-145.18;100.00;46644.78;5028524;28;20030;-60
2023/10/07 08:35:52;;;;;;;26.03;13.03;;;;;;;-145.18;100.00;46650.63;5026609;28;20041;-61
2023/10/07 08:38:23;;;;;;;24.60;13.87;;;;;;;-145.18;100.00;46658.44;5032178;28;20094;-61
2023/10/07 08:40:59;;;;;;;28.83;13.43;;;;;;;-145.18;100.00;46660.41;5028918;28;20059;-60
2023/10/07 08:43:32;;;;;;;24.47;12.97;;;;;;;-145.18;100.00;46660.41;5030094;28;20456;-60
2023/10/07 08:46:01;;;;;;;17.50;11.40;;;;;;;-145.18;100.00;46662.34;5031090;28;20122;-60
2023/10/07 08:48:30;;;;;;;25.57;13.57;;;;;;;-145.18;100.00;46664.31;5030710;28;20033;-60
2023/10/07 08:50:55;;;;;;;23.43;12.47;;;;;;;-145.18;100.00;46660.41;5030884;28;20056;-60
2023/10/07 08:53:26;;;;;;;28.33;13.43;;;;;;;-145.18;100.00;46664.31;5026508;28;20169;-60
2023/10/07 08:55:57;;;;;;;25.20;12.93;;;;;;;-145.18;100.00;46664.31;5032031;28;20045;-60
2023/10/07 08:58:27;;;;;;;23.50;12.90;;;;;;;-145.18;100.00;46668.22;5028922;28;20052;-61
2023/10/07 09:00:53;;;;;;;24.03;13.47;;;;;;;-145.18;100.00;46664.31;5030296;28;20033;-61
2023/10/07 09:03:19;;;;;;;35.23;15.63;;;;;;;-145.18;100.00;46670.16;5028886;28;20087;-61
2023/10/07 09:05:48;;;;;;;30.17;14.00;;;;;;;-145.18;100.00;46670.16;5031516;28;20029;-60
2023/10/07 09:08:15;;;;;;;21.90;13.53;;;;;;;-145.18;100.00;46668.22;5030976;28;20061;-60
2023/10/07 09:10:46;;;;;;;26.13;13.87;;;;;;;-145.18;100.00;46668.22;5029878;28;20033;-61
2023/10/07 09:13:26;;;;;;;23.50;13.70;;;;;;;-145.18;100.00;46666.25;5031463;28;20394;-60
2023/10/07 09:15:59;;;;;;;21.73;13.03;;;;;;;-145.18;100.00;46670.16;5026807;28;20540;-61
2023/10/07 09:18:29;;;;;;;23.57;13.37;;;;;;;-145.18;100.00;46676.03;5031099;28;20030;-61
2023/10/07 09:20:56;;;;;;;22.93;13.20;;;;;;;-145.18;100.00;46676.03;5029293;28;20056;-61
2023/10/07 09:23:24;;;;;;;24.40;12.00;;;;;;;-145.18;100.00;46677.97;5030536;28;20049;-60
2023/10/07 09:25:51;;;;;;;24.03;11.53;;;;;;;-145.18;100.00;46677.97;5028159;28;20036;-61
2023/10/07 09:28:26;;;;;;;21.43;11.27;;;;;;;-145.18;100.00;46681.88;5027003;28;20056;-60
2023/10/07 09:30:51;;;;;;;26.83;11.93;;;;;;;-145.18;100.00;46679.94;5030577;28;20481;-60
2023/10/07 09:33:18;;;;;;;27.63;12.07;;;;;;;-145.18;100.00;46679.94;5030914;28;20057;-61
2023/10/07 09:35:47;;;;;;;28.23;11.47;;;;;;;-145.18;100.00;46679.94;5028093;28;20037;-61
2023/10/07 09:38:33;;;;;;;20.83;10.90;;;;;;;-145.18;100.00;46679.94;5031211;28;20064;-61
2023/10/07 09:41:23;;;;;;;;;;;;;;;-145.18;100.00;46679.94;5029024;28;20487;-61
2023/10/07 09:43:56;;;;;;;23.33;9.97;;;;;;;-145.18;100.00;46681.88;5029766;28;19917;-61
2023/10/07 09:46:25;;;;;;;23.77;9.27;;;;;;;-145.18;100.00;46679.94;5029746;28;20033;-61
2023/10/07 09:48:57;;;;;;;19.97;8.57;;;;;;;-145.18;100.00;46679.94;5028482;28;20044;-61
2023/10/07 09:51:28;;;;;;;19.70;9.27;;;;;;;-145.18;100.00;46685.78;5029518;28;20482;-61
2023/10/07 09:54:27;;;;;;;24.53;9.37;;;;;;;-145.18;100.00;46683.84;5027639;28;20044;-61
2023/10/07 09:57:21;;;;;;;17.20;8.20;;;;;;;-145.18;100.00;46683.84;5029567;28;20129;-61
2023/10/07 10:00:37;;;;;;;17.37;8.53;;;;;;;-145.18;100.00;46683.84;5028226;28;20496;-61
2023/10/07 10:03:30;;;;;;;16.50;8.30;;;;;;;-145.18;100.00;46687.75;5027945;28;20170;-61
2023/10/07 10:06:16;;;;;;;18.70;7.37;;;;;;;-145.18;100.00;46685.78;5028316;28;20047;-60
2023/10/07 10:08:59;;;;;;;14.88;7.22;;;;;;;-145.18;100.00;46687.75;5029138;28;20083;-61
2023/10/07 10:16:51;;;;;;;16.25;5.70;;;;;;;-145.18;100.00;46681.88;5029814;28;20032;-61
2023/10/07 10:19:44;;;;;;;14.90;5.53;;;;;;;-145.18;100.00;46685.78;5026983;28;20065;-61
2023/10/07 10:22:13;;;;;;;13.40;5.27;;;;;;;-145.18;100.00;46658.44;5029027;28;20448;-61
2023/10/07 10:24:43;;;;;;;14.70;5.87;;;;;;;-145.18;100.00;46623.28;5029109;28;20452;-61
2023/10/07 10:27:13;;;;;;;11.70;4.83;;;;;;;-145.18;100.00;46613.50;5029452;28;20026;-61
2023/10/07 10:30:10;;;;;;;15.80;4.67;;;;;;;-145.18;100.00;46593.97;5029695;28;20040;-61
2023/10/07 10:32:36;;;;;;;11.95;4.93;;;;;;;-145.18;100.00;46576.41;5025510;28;20045;-61
2023/10/07 10:35:06;;;;;;;14.50;4.47;;;;;;;-145.18;100.00;46576.41;5028842;28;20445;-61
2023/10/07 10:37:32;;;;;;;16.23;3.90;;;;;;;-145.18;100.00;46593.97;5026501;28;20547;-60
2023/10/07 10:40:05;;;;;;;13.60;4.23;;;;;;;-145.18;100.00;46646.72;5027939;28;20033;-61
2023/10/07 10:42:47;;;;;;;14.27;4.07;;;;;;;-145.18;100.00;46666.25;5028766;28;20555;-61
2023/10/07 10:45:19;;;;;;;17.07;4.37;;;;;;;-145.18;100.00;46685.78;5028136;28;20030;-61
2023/10/07 10:47:50;;;;;;;15.20;4.00;;;;;;;-145.18;100.00;46687.75;5028801;28;20033;-61
2023/10/07 10:50:17;;;;;;;22.60;5.67;;;;;;;-145.18;100.00;46693.59;5028697;28;20056;-61
2023/10/07 10:52:48;;;;;;;17.37;4.20;;;;;;;-145.18;100.00;46687.75;5032758;28;20083;-61
2023/10/07 10:55:14;;;;;;;18.27;4.03;;;;;;;-145.18;100.00;46691.66;5027244;28;20029;-61
2023/10/07 10:57:40;;;;;;;15.43;4.87;;;;;;;-145.18;100.00;46687.75;5031532;28;20033;-61
2023/10/07 11:00:19;;;;;;;17.87;4.63;;;;;;;-145.18;100.00;46687.75;5029958;28;20389;-61
2023/10/07 11:02:45;;;;;;;17.17;4.13;;;;;;;-145.18;100.00;46693.59;5032265;28;20108;-61
2023/10/07 11:05:12;;;;;;;15.70;4.33;;;;;;;-145.18;100.00;46687.75;5032162;28;20124;-61
2023/10/07 11:07:39;;;;;;;15.73;3.93;;;;;;;-145.18;100.00;46683.84;5029104;28;20033;-61
2023/10/07 11:10:08;;;;;;;9.90;3.50;;;;;;;-145.18;100.00;46683.84;5031085;28;20029;-61
2023/10/07 11:12:33;;;;;;;15.97;4.00;;;;;;;-145.18;100.00;46681.88;5030953;28;20520;-60
2023/10/07 11:15:13;;;;;;;14.37;4.63;;;;;;;-145.18;100.00;46681.88;5031222;28;20022;-61
2023/10/07 11:17:52;;;;;;;12.97;3.73;;;;;;;-145.18;100.00;46689.69;5032508;28;20029;-61
2023/10/07 11:20:19;;;;;;;27.57;4.73;;;;;;;-145.18;100.00;46677.97;5031737;28;20083;-61
2023/10/07 11:22:45;;;;;;;13.73;4.20;;;;;;;-145.18;100.00;46683.84;5030324;28;20045;-61
2023/10/07 11:25:14;;;;;;;17.37;5.10;;;;;;;-145.18;100.00;46685.78;5028349;28;20029;-60
2023/10/07 11:27:42;;;;;;;13.80;4.50;;;;;;;-145.18;100.00;46691.66;5029188;28;20038;-61
2023/10/07 11:30:14;;;;;;;16.37;4.13;;;;;;;-145.18;100.00;46689.69;5031537;28;20069;-61
2023/10/07 11:32:40;;;;;;;14.37;4.63;;;;;;;-145.18;100.00;46693.59;5029186;28;20025;-61
2023/10/07 11:35:19;;;;;;;15.37;4.70;;;;;;;-145.18;100.00;46689.69;5030236;28;20106;-61
2023/10/07 11:37:49;;;;;;;12.67;4.30;;;;;;;-145.18;100.00;46691.66;5030112;28;20513;-61
2023/10/07 11:40:15;;;;;;;19.10;4.60;;;;;;;-145.18;100.00;46689.69;5032040;28;20112;-61
2023/10/07 11:42:41;;;;;;;23.27;4.57;;;;;;;-145.18;100.00;46691.66;5030775;28;20033;-61
2023/10/07 11:45:09;;;;;;;14.27;3.93;;;;;;;-145.18;100.00;46685.78;5030859;28;20087;-61
2023/10/07 11:47:36;;;;;;;14.17;4.27;;;;;;;-145.18;100.00;46681.88;5031250;28;20033;-61
2023/10/07 11:50:04;;;;;;;18.00;4.63;;;;;;;-145.18;100.00;46679.94;5031049;28;20025;-61
2023/10/07 11:52:31;;;;;;;18.53;4.20;;;;;;;-145.18;100.00;46677.97;5030630;28;20029;-60
2023/10/07 11:54:57;;;;;;;15.67;4.07;;;;;;;-145.18;100.00;46681.88;5030909;28;20116;-60
2023/10/07 11:57:22;;;;;;;12.43;4.57;;;;;;;-145.18;100.00;46679.94;5031127;28;21018;-60